Time;durP1;ratioP1;P1;durP2;ratioP2;P2;SDS_P1;SDS_P2;PMS_P1;PMS_P2;Temp;Humidity;BMP_temperature;BMP_pressure;BME280_temperature;BME280_humidity;BME280_pressure;Samples;Min_cycle;Max_cycle;Signal;HPM_P1;HPM_P2
2021/04/18 00:01:50;;;;;;;8.05;4.85;;;;;;;6.05;86.89;96813.34;4936021;28;20909;-70
2021/04/18 00:04:18;;;;;;;10.60;4.40;;;;;;;5.89;86.84;96809.72;4917822;29;20668;-69
2021/04/18 00:06:45;;;;;;;12.73;5.15;;;;;;;5.85;87.38;96813.31;4905004;29;20631;-71
2021/04/18 00:09:12;;;;;;;9.18;5.38;;;;;;;5.85;87.81;96802.97;4901397;29;20292;-71
2021/04/18 00:11:40;;;;;;;14.25;4.88;;;;;;;5.90;88.72;96801.06;4901216;29;20617;-73
2021/04/18 00:14:09;;;;;;;8.85;4.82;;;;;;;5.95;89.16;96805.13;4903155;28;20220;-72
2021/04/18 00:16:36;;;;;;;8.45;4.03;;;;;;;5.98;89.56;96799.84;4902804;29;20644;-73
2021/04/18 00:19:04;;;;;;;5.40;4.25;;;;;;;6.04;89.13;96798.78;4907684;29;20331;-72
2021/04/18 00:21:31;;;;;;;6.90;3.70;;;;;;;6.15;88.71;96801.72;4899312;29;20223;-72
2021/04/18 00:23:58;;;;;;;7.82;4.75;;;;;;;6.12;88.97;96797.53;4905470;29;20216;-72
2021/04/18 00:26:25;;;;;;;8.70;5.03;;;;;;;6.12;88.68;96792.34;4901721;29;20239;-71
2021/04/18 00:28:53;;;;;;;7.22;4.45;;;;;;;6.02;88.79;96790.22;4899831;29;20660;-72
2021/04/18 00:31:20;;;;;;;10.27;5.50;;;;;;;5.99;89.51;96786.03;4898051;29;20244;-73
2021/04/18 00:33:47;;;;;;;9.15;4.85;;;;;;;6.09;88.94;96787.34;4902791;28;20702;-72
2021/04/18 00:36:25;;;;;;;7.05;4.90;;;;;;;6.01;89.12;96778.22;4901426;29;20636;-72
2021/04/18 00:38:52;;;;;;;7.75;5.13;;;;;;;6.08;89.52;96789.97;4915901;29;20283;-71
2021/04/18 00:41:21;;;;;;;9.80;4.70;;;;;;;6.01;89.13;96785.97;4904111;29;20195;-72
2021/04/18 00:43:48;;;;;;;9.02;5.60;;;;;;;6.00;89.41;96792.88;4908674;29;20551;-71
2021/04/18 00:46:15;;;;;;;9.43;4.88;;;;;;;5.95;89.22;96783.63;4902068;29;20695;-71
2021/04/18 00:48:44;;;;;;;7.30;4.32;;;;;;;5.94;89.79;96781.94;4906238;29;20940;-73
2021/04/18 00:51:13;;;;;;;9.13;5.30;;;;;;;6.06;89.18;96784.03;4904437;29;20591;-72
2021/04/18 00:53:41;;;;;;;7.65;5.07;;;;;;;6.01;89.74;96779.06;4911573;29;20275;-72
2021/04/18 00:56:09;;;;;;;7.13;4.45;;;;;;;6.09;89.36;96786.47;4900618;29;20297;-72
2021/04/18 00:58:38;;;;;;;6.72;4.18;;;;;;;6.00;89.15;96779.97;4902978;29;20232;-72
2021/04/18 01:01:06;;;;;;;9.50;4.78;;;;;;;6.00;88.98;96779.97;4907751;28;20577;-72
2021/04/18 01:03:34;;;;;;;8.55;5.03;;;;;;;5.97;88.63;96776.66;4914581;29;20223;-72
2021/04/18 01:06:03;;;;;;;8.25;5.45;;;;;;;5.99;89.07;96780.03;4911725;29;20210;-72
2021/04/18 01:08:30;;;;;;;11.50;4.93;;;;;;;5.99;89.06;96774.84;4922634;29;20223;-72
2021/04/18 01:10:57;;;;;;;11.52;4.90;;;;;;;6.00;89.00;96776.53;4920980;29;20518;-71
2021/04/18 01:13:49;;;;;;;8.02;5.10;;;;;;;5.80;89.17;96768.75;4910758;29;20222;-70
2021/04/18 01:16:17;;;;;;;12.25;5.00;;;;;;;5.61;89.70;96770.38;4917210;29;20537;-72
2021/04/18 01:18:45;;;;;;;17.67;5.95;;;;;;;5.48;91.03;96753.69;4909158;29;20219;-71
2021/04/18 01:21:13;;;;;;;9.98;5.60;;;;;;;5.69;91.25;96770.91;4906034;29;20323;-72
2021/04/18 01:23:41;;;;;;;8.02;4.90;;;;;;;5.81;90.50;96766.13;4908566;28;20548;-71
2021/04/18 01:26:09;;;;;;;7.22;5.32;;;;;;;5.81;90.45;96760.94;4924638;29;20691;-72
2021/04/18 01:28:37;;;;;;;10.13;6.03;;;;;;;5.77;90.92;96755.94;4916056;29;20555;-70
2021/04/18 01:31:05;;;;;;;8.90;5.10;;;;;;;5.59;90.64;96747.19;4915515;29;20648;-71
2021/04/18 01:33:35;;;;;;;7.15;5.47;;;;;;;5.59;90.74;96756.66;4910074;28;20663;-70
2021/04/18 01:36:04;;;;;;;9.73;5.50;;;;;;;5.40;91.80;96753.16;4919658;29;20643;-70
2021/04/18 01:38:33;;;;;;;8.60;5.50;;;;;;;5.55;92.14;96747.38;4906750;28;20223;-70
2021/04/18 01:41:02;;;;;;;13.77;6.28;;;;;;;5.66;91.40;96750.34;4916063;29;20285;-71
2021/04/18 01:43:29;;;;;;;9.85;6.00;;;;;;;5.76;90.98;96749.09;4923000;29;20223;-73
2021/04/18 01:45:56;;;;;;;14.25;6.28;;;;;;;5.81;90.63;96752.38;4919970;29;20596;-71
2021/04/18 01:48:23;;;;;;;8.88;5.30;;;;;;;5.77;90.17;96748.19;4913444;29;20228;-72
2021/04/18 01:50:51;;;;;;;14.63;6.35;;;;;;;5.83;89.79;96753.16;4923029;29;20204;-71
2021/04/18 01:53:18;;;;;;;8.70;5.93;;;;;;;5.81;90.16;96754.97;4936301;28;20548;-71
2021/04/18 01:55:46;;;;;;;14.15;5.68;;;;;;;5.71;90.27;96751.88;4908903;29;20197;-73
2021/04/18 01:58:13;;;;;;;10.32;6.30;;;;;;;5.71;90.22;96751.03;4914716;29;20231;-72
2021/04/18 02:00:43;;;;;;;10.00;6.68;;;;;;;5.79;90.46;96751.53;4925488;29;20227;-73
2021/04/18 02:03:09;;;;;;;11.07;5.18;;;;;;;5.82;90.22;96735.97;4939549;28;20191;-71
2021/04/18 02:05:37;;;;;;;9.85;5.82;;;;;;;5.92;90.52;96748.44;4940668;28;20282;-73
2021/04/18 02:08:07;;;;;;;11.50;6.40;;;;;;;6.01;90.08;96747.22;4942833;28;20658;-72
2021/04/18 02:10:34;;;;;;;8.00;5.45;;;;;;;5.96;90.06;96744.81;4935800;28;20211;-71
2021/04/18 02:13:02;;;;;;;11.57;6.05;;;;;;;5.99;90.13;96744.72;4941692;28;20206;-72
2021/04/18 02:15:29;;;;;;;14.07;6.50;;;;;;;6.05;90.07;96748.78;4939361;28;20712;-72
2021/04/18 02:17:56;;;;;;;12.70;7.15;;;;;;;5.98;90.15;96747.34;4943397;28;20604;-74
2021/04/18 02:20:23;;;;;;;12.50;6.85;;;;;;;5.95;89.64;96737.13;4938908;28;20771;-72
2021/04/18 02:22:50;;;;;;;13.00;7.47;;;;;;;5.89;90.35;96747.75;4942656;28;20187;-72
2021/04/18 02:25:17;;;;;;;12.55;7.38;;;;;;;5.82;90.36;96744.53;4949674;28;20541;-72
2021/04/18 02:27:44;;;;;;;8.55;6.15;;;;;;;5.89;90.81;96752.91;4952011;28;20203;-73
2021/04/18 02:30:20;;;;;;;10.68;6.30;;;;;;;5.90;90.39;96747.66;4921642;28;20678;-72
2021/04/18 02:32:48;;;;;;;13.82;6.10;;;;;;;5.78;90.62;96749.88;4943241;28;20206;-73
2021/04/18 02:35:16;;;;;;;7.82;5.40;;;;;;;5.70;90.50;96747.63;4943240;28;20238;-72
2021/04/18 02:37:45;;;;;;;11.02;6.63;;;;;;;5.61;90.72;96726.50;4949119;28;20527;-72
2021/04/18 02:40:13;;;;;;;18.10;7.45;;;;;;;5.82;90.75;96746.31;4946992;28;20674;-72
2021/04/18 02:42:41;;;;;;;16.75;5.85;;;;;;;5.74;91.07;96748.34;4946772;28;20619;-72
2021/04/18 02:45:10;;;;;;;12.25;6.68;;;;;;;5.68;90.57;96743.41;4947398;28;20243;-73
2021/04/18 02:47:38;;;;;;;13.90;6.90;;;;;;;5.72;91.23;96744.94;4942710;28;20187;-73
2021/04/18 02:50:08;;;;;;;12.65;6.07;;;;;;;5.77;90.90;96745.63;4941439;28;20674;-71
2021/04/18 02:52:35;;;;;;;13.98;6.88;;;;;;;5.76;90.56;96737.00;4938828;28;20198;-72
2021/04/18 02:55:03;;;;;;;12.13;6.57;;;;;;;5.85;90.44;96747.03;4951521;28;20239;-71
2021/04/18 02:57:30;;;;;;;10.52;6.93;;;;;;;5.87;90.12;96740.03;4954320;28;20277;-71
2021/04/18 02:59:57;;;;;;;11.35;6.32;;;;;;;5.86;90.40;96737.50;4950289;28;20793;-72
2021/04/18 03:02:24;;;;;;;9.52;6.40;;;;;;;5.83;89.89;96727.31;4944693;28;20742;-71
2021/04/18 03:04:52;;;;;;;15.98;6.72;;;;;;;5.86;90.30;96745.25;4946075;28;20269;-72
2021/04/18 03:07:19;;;;;;;11.55;6.60;;;;;;;5.92;89.76;96739.84;4941616;28;20246;-72
2021/04/18 03:09:46;;;;;;;10.05;7.05;;;;;;;5.92;89.98;96732.09;4942202;28;20230;-72
2021/04/18 03:12:13;;;;;;;10.43;5.95;;;;;;;5.90;89.85;96736.50;4944149;28;20217;-70
2021/04/18 03:14:40;;;;;;;14.80;6.30;;;;;;;5.96;89.88;96739.66;4939300;28;20580;-72
2021/04/18 03:17:07;;;;;;;9.90;6.70;;;;;;;5.84;89.65;96739.31;4941954;28;20231;-72
2021/04/18 03:19:34;;;;;;;14.23;8.10;;;;;;;5.68;90.05;96741.66;4942490;28;20629;-71
2021/04/18 03:22:02;;;;;;;10.88;6.50;;;;;;;5.57;91.19;96727.50;4945651;28;20869;-71
2021/04/18 03:24:29;;;;;;;14.10;7.07;;;;;;;5.47;91.35;96728.78;4922846;28;20663;-71
2021/04/18 03:26:56;;;;;;;12.02;6.90;;;;;;;5.30;91.99;96738.94;4940558;28;20191;-70
2021/04/18 03:29:23;;;;;;;12.13;7.10;;;;;;;5.25;93.26;96748.59;4936707;28;20227;-72
2021/04/18 03:31:50;;;;;;;11.55;7.13;;;;;;;5.35;93.09;96739.59;4938823;28;20634;-71
2021/04/18 03:34:17;;;;;;;12.85;7.57;;;;;;;5.45;92.67;96740.91;4947292;28;20663;-72
2021/04/18 03:36:44;;;;;;;28.92;15.85;;;;;;;5.31;93.25;96738.03;4949564;28;20578;-72
2021/04/18 03:39:12;;;;;;;14.43;9.30;;;;;;;5.21;93.28;96736.69;4938553;28;20730;-72
2021/04/18 03:41:39;;;;;;;11.60;7.93;;;;;;;5.24;93.27;96737.41;4939933;28;20709;-72
2021/04/18 03:44:07;;;;;;;11.07;7.32;;;;;;;5.06;93.14;96737.28;4942427;28;20762;-70
2021/04/18 03:46:34;;;;;;;13.25;7.65;;;;;;;4.88;94.63;96738.81;4937601;28;20199;-71
2021/04/18 03:49:01;;;;;;;12.27;6.95;;;;;;;4.95;94.61;96744.63;4933345;28;20737;-71
2021/04/18 03:51:45;;;;;;;12.60;7.85;;;;;;;5.05;93.91;96733.03;4944882;28;20230;-71
2021/04/18 03:54:13;;;;;;;11.07;7.40;;;;;;;5.14;94.29;96740.41;4946343;28;20223;-72
2021/04/18 03:56:39;;;;;;;12.75;7.72;;;;;;;5.22;93.97;96738.38;4944249;28;20206;-71
2021/04/18 03:59:06;;;;;;;13.95;8.02;;;;;;;5.31;93.77;96730.31;4942693;28;20589;-71
2021/04/18 04:01:33;;;;;;;11.98;6.72;;;;;;;5.40;92.76;96730.75;4943635;28;20718;-71
2021/04/18 04:04:02;;;;;;;11.30;6.30;;;;;;;5.48;92.65;96738.19;4941218;28;20237;-70
2021/04/18 04:06:29;;;;;;;12.50;7.70;;;;;;;5.59;92.15;96734.28;4941378;28;20552;-70
2021/04/18 04:08:56;;;;;;;14.60;7.28;;;;;;;5.63;91.92;96732.41;4938587;28;20698;-71
2021/04/18 04:11:24;;;;;;;11.93;7.70;;;;;;;5.71;91.43;96736.38;4939390;28;20215;-74
2021/04/18 04:13:51;;;;;;;9.73;6.78;;;;;;;5.80;91.15;96737.75;4950203;28;20503;-70
2021/04/18 04:16:18;;;;;;;10.05;6.90;;;;;;;5.82;90.90;96738.56;4942103;28;20191;-71
2021/04/18 04:18:47;;;;;;;10.52;7.47;;;;;;;5.80;90.97;96737.75;4940224;28;20538;-71
2021/04/18 04:21:14;;;;;;;12.82;7.63;;;;;;;5.78;90.98;96736.97;4943896;28;20262;-72
2021/04/18 04:23:41;;;;;;;13.52;6.60;;;;;;;5.83;90.58;96735.06;4938784;28;20222;-71
2021/04/18 04:26:08;;;;;;;15.13;6.47;;;;;;;5.75;90.25;96740.50;4941839;28;20642;-70
2021/04/18 04:28:36;;;;;;;12.10;6.95;;;;;;;5.80;90.74;96737.75;4937521;28;20241;-70
2021/04/18 04:31:04;;;;;;;12.18;6.47;;;;;;;5.81;90.04;96739.47;4942633;28;20223;-71
2021/04/18 04:33:36;;;;;;;12.35;7.65;;;;;;;5.93;89.85;96744.09;4938917;28;20226;-71
2021/04/18 04:36:05;;;;;;;11.48;6.60;;;;;;;5.88;89.50;96727.94;4945086;28;20195;-70
2021/04/18 04:38:32;;;;;;;15.55;7.43;;;;;;;5.70;89.34;96742.44;4935618;28;20218;-72
2021/04/18 04:40:59;;;;;;;11.68;6.95;;;;;;;5.77;89.31;96745.63;4943473;28;20196;-70
2021/04/18 04:43:27;;;;;;;12.50;7.75;;;;;;;5.79;89.60;96742.09;4945013;28;20553;-69
2021/04/18 04:45:54;;;;;;;17.13;7.93;;;;;;;5.80;89.29;96742.94;4943593;28;20289;-71
2021/04/18 04:48:22;;;;;;;18.80;7.35;;;;;;;5.80;89.56;96743.78;4941644;28;20551;-70
2021/04/18 04:50:49;;;;;;;14.45;7.68;;;;;;;5.86;89.68;96748.69;4944522;28;20261;-71
2021/04/18 04:53:16;;;;;;;13.82;8.20;;;;;;;5.90;89.60;96752.00;4942924;28;20639;-70
2021/04/18 04:55:47;;;;;;;18.63;7.75;;;;;;;5.88;89.44;96753.78;4942378;28;20195;-69
2021/04/18 04:58:14;;;;;;;12.40;7.45;;;;;;;5.95;89.41;96752.63;4934191;28;20583;-71
2021/04/18 05:00:44;;;;;;;14.85;9.07;;;;;;;5.87;89.72;96758.13;4941553;28;20238;-71
2021/04/18 05:03:12;;;;;;;13.45;7.45;;;;;;;5.88;89.54;96766.69;4922213;28;20624;-71
2021/04/18 05:05:39;;;;;;;12.50;7.97;;;;;;;5.79;90.30;96764.47;4941347;28;20253;-70
2021/04/18 05:08:07;;;;;;;16.58;9.27;;;;;;;5.73;90.86;96765.56;4941681;28;20191;-69
2021/04/18 05:10:34;;;;;;;14.40;8.00;;;;;;;5.78;90.34;96762.78;4941532;28;20215;-71
2021/04/18 05:13:01;;;;;;;22.63;8.88;;;;;;;5.80;90.61;96763.59;4926394;28;20234;-70
2021/04/18 05:15:28;;;;;;;17.63;8.32;;;;;;;5.73;90.54;96762.97;4938792;28;20706;-72
2021/04/18 05:17:55;;;;;;;11.05;8.63;;;;;;;5.85;90.71;96764.25;4941813;28;20848;-71
2021/04/18 05:20:23;;;;;;;16.77;8.48;;;;;;;5.93;91.18;96769.94;4943356;28;20211;-70
2021/04/18 05:22:51;;;;;;;12.73;8.13;;;;;;;6.03;90.17;96766.09;4942488;28;20265;-70
2021/04/18 05:25:17;;;;;;;13.55;8.45;;;;;;;5.99;89.94;96749.03;4936966;28;20706;-70
2021/04/18 05:27:44;;;;;;;14.60;8.95;;;;;;;6.11;89.31;96764.84;4947538;28;20187;-71
2021/04/18 05:30:12;;;;;;;15.45;8.38;;;;;;;5.95;89.43;96753.47;4939819;28;20254;-71
2021/04/18 05:32:41;;;;;;;14.93;8.77;;;;;;;6.01;89.61;96767.88;4939246;28;20273;-71
2021/04/18 05:35:10;;;;;;;18.50;7.75;;;;;;;6.12;89.68;96776.03;4941028;28;20230;-71
2021/04/18 05:37:38;;;;;;;13.30;9.18;;;;;;;6.16;88.99;96778.44;4945653;28;20531;-72
2021/04/18 05:40:06;;;;;;;12.45;8.55;;;;;;;6.24;89.13;96772.91;4943364;28;20223;-71
2021/04/18 05:42:33;;;;;;;13.43;8.30;;;;;;;6.31;88.79;96774.34;4933430;28;20701;-71
2021/04/18 05:45:00;;;;;;;14.07;8.23;;;;;;;6.26;87.77;96776.31;4939509;28;20682;-70
2021/04/18 05:47:27;;;;;;;19.13;8.90;;;;;;;6.06;88.72;96781.44;4941975;28;20187;-70
2021/04/18 05:49:54;;;;;;;14.27;9.13;;;;;;;6.06;89.30;96791.78;4949182;28;20720;-69
2021/04/18 05:52:21;;;;;;;15.93;8.80;;;;;;;6.03;89.14;96786.75;4923329;28;20218;-70
2021/04/18 05:54:51;;;;;;;14.30;9.23;;;;;;;5.88;89.25;96787.34;4940596;28;20241;-70
2021/04/18 05:57:18;;;;;;;13.90;8.43;;;;;;;5.97;89.41;96771.50;4939617;28;20674;-74
2021/04/18 05:59:45;;;;;;;14.55;8.95;;;;;;;6.06;89.44;96781.44;4949351;28;20230;-70
2021/04/18 06:02:12;;;;;;;14.57;8.80;;;;;;;6.22;89.00;96785.06;4937289;28;20191;-70
2021/04/18 06:04:39;;;;;;;13.52;9.43;;;;;;;6.16;88.39;96787.91;4952855;28;20230;-71
2021/04/18 06:07:08;;;;;;;17.13;9.68;;;;;;;6.09;88.60;96776.16;4955857;28;20662;-71
2021/04/18 06:09:35;;;;;;;17.05;9.50;;;;;;;6.11;88.60;96782.94;4947667;28;20539;-73
2021/04/18 06:12:03;;;;;;;12.15;8.32;;;;;;;6.06;89.17;96782.28;4936764;28;20219;-74
2021/04/18 06:14:29;;;;;;;14.45;9.68;;;;;;;5.96;89.14;96775.00;4949377;28;20234;-73
2021/04/18 06:16:56;;;;;;;13.45;8.82;;;;;;;6.09;89.03;96786.47;4950355;28;20195;-72
2021/04/18 06:19:24;;;;;;;17.27;8.88;;;;;;;5.97;89.25;96789.59;4941126;28;20222;-71
2021/04/18 06:21:50;;;;;;;15.95;9.43;;;;;;;5.99;89.32;96782.59;4944541;28;20226;-73
2021/04/18 06:24:17;;;;;;;16.85;8.82;;;;;;;6.19;88.89;96787.78;4949275;28;20227;-73
2021/04/18 06:26:44;;;;;;;13.90;9.38;;;;;;;6.29;88.45;96789.94;4942932;28;20196;-73
2021/04/18 06:29:12;;;;;;;13.13;8.40;;;;;;;6.19;89.04;96782.63;4947406;28;20676;-72
2021/04/18 06:31:39;;;;;;;16.40;9.25;;;;;;;6.13;88.22;96777.72;4950379;28;20207;-72
2021/04/18 06:34:09;;;;;;;13.98;8.88;;;;;;;6.33;88.49;96781.13;4948929;28;20658;-74
2021/04/18 06:36:36;;;;;;;11.82;8.77;;;;;;;6.63;87.58;96784.97;4945143;28;20600;-72
2021/04/18 06:39:04;;;;;;;12.10;8.73;;;;;;;6.72;86.20;96771.66;4947346;28;20736;-74
2021/04/18 06:41:35;;;;;;;12.77;7.82;;;;;;;6.76;85.22;96786.13;4950600;28;20675;-72
2021/04/18 06:44:03;;;;;;;13.93;8.35;;;;;;;6.74;84.84;96792.28;4950523;28;20552;-72
2021/04/18 06:46:32;;;;;;;12.18;7.88;;;;;;;6.71;85.29;96787.25;4950983;28;20195;-72
2021/04/18 06:49:00;;;;;;;23.40;7.67;;;;;;;6.84;84.58;96778.03;4946843;28;20638;-72
2021/04/18 06:51:27;;;;;;;15.70;7.88;;;;;;;7.07;84.08;96791.59;4934856;28;21154;-73
2021/04/18 06:53:54;;;;;;;16.30;7.60;;;;;;;7.07;82.73;96780.44;4937776;28;20739;-73
2021/04/18 06:56:21;;;;;;;14.00;7.85;;;;;;;7.21;82.63;96778.06;4943383;28;20562;-73
2021/04/18 06:58:57;;;;;;;8.25;6.45;;;;;;;7.43;81.85;96791.69;4947801;28;20262;-74
2021/04/18 07:01:24;;;;;;;11.25;7.70;;;;;;;7.36;80.53;96783.34;4942391;28;20344;-72
2021/04/18 07:04:11;;;;;;;12.60;7.50;;;;;;;7.28;81.00;96782.88;4938277;28;20570;-71
2021/04/18 07:06:41;;;;;;;12.93;7.40;;;;;;;7.22;81.07;96774.56;4948491;28;20191;-74
2021/04/18 07:09:09;;;;;;;11.52;6.82;;;;;;;7.47;81.37;96780.25;4943172;28;20744;-73
2021/04/18 07:11:48;;;;;;;14.65;7.60;;;;;;;7.76;80.52;96788.34;4949463;28;20686;-73
2021/04/18 07:14:29;;;;;;;12.63;8.02;;;;;;;7.84;80.00;96777.59;4936735;28;20527;-74
2021/04/18 07:17:06;;;;;;;12.40;7.87;;;;;;;7.41;80.27;96777.94;4942183;28;20214;-74
2021/04/18 07:19:36;;;;;;;15.52;7.80;;;;;;;7.10;81.04;96775.97;4942263;28;21142;-72
2021/04/18 07:22:03;;;;;;;13.55;6.78;;;;;;;7.31;82.22;96774.13;4948221;28;20643;-72
2021/04/18 07:24:32;;;;;;;16.20;7.82;;;;;;;7.52;80.81;96757.59;4942729;28;20606;-76
2021/04/18 07:27:01;;;;;;;17.55;7.63;;;;;;;7.91;79.02;96776.38;4942491;28;20586;-73
2021/04/18 07:29:30;;;;;;;14.02;8.57;;;;;;;7.84;79.33;96772.41;4943151;28;20223;-73
2021/04/18 07:31:58;;;;;;;12.32;7.47;;;;;;;7.90;78.81;96764.34;4937250;28;20199;-73
2021/04/18 07:34:34;;;;;;;26.75;8.00;;;;;;;7.84;78.86;96768.09;4945521;28;20237;-73
2021/04/18 07:37:10;;;;;;;13.80;8.00;;;;;;;7.89;78.99;96773.03;4937938;28;20684;-72
2021/04/18 07:39:45;;;;;;;13.15;7.40;;;;;;;7.98;79.22;96775.19;4939310;28;20850;-72
2021/04/18 07:42:36;;;;;;;12.80;6.38;;;;;;;8.31;78.00;96774.38;4944761;28;20186;-71
2021/04/18 07:45:06;;;;;;;12.33;7.00;;;;;;;8.52;76.22;96766.38;4941299;28;20685;-71
2021/04/18 07:47:36;;;;;;;12.00;6.93;;;;;;;8.65;75.68;96769.97;4942312;28;20806;-72
2021/04/18 07:50:05;;;;;;;11.03;7.17;;;;;;;8.40;74.25;96769.56;4944626;28;20467;-71
2021/04/18 07:52:33;;;;;;;8.23;5.93;;;;;;;7.93;74.51;96749.50;4946354;28;20787;-75
2021/04/18 07:55:03;;;;;;;11.80;7.22;;;;;;;8.08;74.94;96769.47;4940346;28;21036;-74
2021/04/18 07:57:30;;;;;;;12.05;6.95;;;;;;;8.38;75.47;96767.97;4937572;28;20203;-72
2021/04/18 07:59:58;;;;;;;14.00;7.30;;;;;;;8.64;75.12;96767.50;4943020;28;20229;-75
2021/04/18 08:02:26;;;;;;;16.70;7.20;;;;;;;8.60;74.07;96763.38;4945850;28;20438;-73
2021/04/18 08:04:55;;;;;;;14.17;7.00;;;;;;;8.46;74.95;96773.59;4948120;28;20464;-72
2021/04/18 08:07:22;;;;;;;10.30;5.90;;;;;;;8.39;75.72;96770.50;4942552;28;20445;-75
2021/04/18 08:10:23;;;;;;;13.37;6.83;;;;;;;8.54;76.24;96771.44;4943191;28;20958;-73
2021/04/18 08:13:11;;;;;;;15.77;6.80;;;;;;;8.67;75.03;96773.34;4937306;28;21114;-73
2021/04/18 08:15:41;;;;;;;10.80;6.80;;;;;;;8.79;74.08;96770.09;4936224;28;20918;-74
2021/04/18 08:18:11;;;;;;;13.23;6.30;;;;;;;8.94;73.71;96777.09;4941926;28;20426;-73
2021/04/18 08:20:46;;;;;;;10.70;5.23;;;;;;;9.09;71.54;96768.50;4949310;28;20878;-73
2021/04/18 08:23:16;;;;;;;10.07;4.90;;;;;;;8.98;71.23;96770.84;4934796;28;20512;-73
2021/04/18 08:26:10;;;;;;;8.23;4.73;;;;;;;8.97;68.59;96774.34;4937274;28;20443;-73
2021/04/18 08:29:09;;;;;;;13.10;5.87;;;;;;;8.65;70.46;96771.75;4948359;28;20521;-73
2021/04/18 08:32:11;;;;;;;12.37;4.77;;;;;;;9.01;70.68;96765.47;4928294;28;21138;-73
2021/04/18 08:34:43;;;;;;;9.50;5.70;;;;;;;9.05;70.47;96753.16;4938174;28;21040;-73
2021/04/18 08:37:17;;;;;;;11.57;4.70;;;;;;;9.27;69.32;96770.13;4942276;28;20765;-72
2021/04/18 08:39:44;;;;;;;13.33;5.50;;;;;;;9.45;69.24;96769.09;4946368;28;21005;-74
2021/04/18 08:42:25;;;;;;;13.40;5.47;;;;;;;9.54;68.27;96776.41;4936313;28;20824;-72
2021/04/18 08:44:53;;;;;;;7.70;5.30;;;;;;;9.46;69.03;96783.78;4948346;28;20468;-74
2021/04/18 08:47:25;;;;;;;10.27;4.30;;;;;;;9.41;69.54;96778.00;4943184;28;20906;-73
2021/04/18 08:49:56;;;;;;;11.63;4.80;;;;;;;9.56;67.71;96777.16;4942375;28;20981;-72
2021/04/18 08:52:24;;;;;;;10.07;5.60;;;;;;;9.44;68.01;96777.00;4940341;28;21000;-73
2021/04/18 08:54:53;;;;;;;12.80;5.30;;;;;;;9.56;67.44;96779.75;4943590;28;20846;-72
2021/04/18 08:57:22;;;;;;;8.80;5.23;;;;;;;9.62;67.89;96781.16;4936635;28;21213;-72
2021/04/18 08:59:54;;;;;;;11.97;5.53;;;;;;;9.75;66.42;96780.44;4935019;28;20516;-75
2021/04/18 09:02:22;;;;;;;13.03;5.90;;;;;;;9.83;65.09;96780.84;4942527;28;20438;-72
2021/04/18 09:04:52;;;;;;;14.03;4.80;;;;;;;9.90;64.40;96776.13;4945622;28;21152;-73
2021/04/18 09:07:20;;;;;;;10.57;5.07;;;;;;;10.10;64.11;96786.25;4946742;28;20450;-73
2021/04/18 09:09:48;;;;;;;17.53;6.07;;;;;;;10.19;63.89;96794.38;4935810;28;20458;-73
2021/04/18 09:12:17;;;;;;;10.47;5.07;;;;;;;10.34;64.76;96785.69;4919362;28;21003;-73
2021/04/18 09:14:48;;;;;;;20.33;5.47;;;;;;;10.39;64.59;96793.22;4934729;28;20458;-73
2021/04/18 09:17:18;;;;;;;15.37;5.60;;;;;;;10.34;64.37;96796.09;4941316;28;20446;-73
2021/04/18 09:19:48;;;;;;;14.27;5.90;;;;;;;10.31;64.89;96795.44;4935617;28;20944;-74
2021/04/18 09:22:16;;;;;;;13.27;6.10;;;;;;;10.31;64.83;96798.88;4940047;28;20439;-73
2021/04/18 09:24:46;;;;;;;22.13;6.30;;;;;;;10.42;65.04;96796.50;4950360;28;20548;-73
2021/04/18 09:27:16;;;;;;;12.47;6.13;;;;;;;10.33;64.63;96804.00;4943494;28;20795;-73
2021/04/18 09:29:48;;;;;;;12.30;6.17;;;;;;;10.28;64.06;96795.59;4945743;28;20502;-73
2021/04/18 09:32:17;;;;;;;13.40;6.50;;;;;;;10.11;64.17;96795.75;4940579;28;21012;-73
2021/04/18 09:34:46;;;;;;;10.80;5.10;;;;;;;10.13;65.34;96792.13;4951440;28;20978;-71
2021/04/18 09:37:16;;;;;;;28.63;6.60;;;;;;;10.23;64.92;96793.28;4947498;28;20516;-73
2021/04/18 09:39:44;;;;;;;10.67;5.07;;;;;;;9.83;64.28;96783.44;4938679;28;20957;-73
2021/04/18 09:42:16;;;;;;;19.23;5.97;;;;;;;10.13;64.36;96791.28;4939687;28;20941;-72
2021/04/18 09:44:45;;;;;;;17.07;5.47;;;;;;;10.38;64.64;96792.38;4941528;28;20474;-73
2021/04/18 09:47:25;;;;;;;14.70;6.20;;;;;;;10.66;63.11;96792.44;4945575;28;20845;-73
2021/04/18 09:49:59;;;;;;;13.43;5.40;;;;;;;10.57;62.94;96787.78;4944863;28;20804;-73
2021/04/18 09:52:32;;;;;;;15.30;5.50;;;;;;;10.42;63.67;96788.69;4951902;28;21029;-73
2021/04/18 09:55:20;;;;;;;17.10;5.47;;;;;;;10.55;63.49;96792.22;4940896;28;20843;-74
2021/04/18 09:57:53;;;;;;;17.90;5.80;;;;;;;10.36;62.85;96786.44;4945523;28;20449;-72
2021/04/18 10:00:36;;;;;;;13.43;5.60;;;;;;;10.26;63.43;96795.69;4943412;28;20529;-72
2021/04/18 10:03:09;;;;;;;12.30;5.83;;;;;;;10.33;63.28;96789.19;4939932;28;20453;-73
2021/04/18 10:05:55;;;;;;;21.03;5.70;;;;;;;10.45;63.01;96791.09;4928779;28;21011;-73
2021/04/18 10:08:24;;;;;;;11.50;5.40;;;;;;;10.46;62.80;96790.16;4944620;28;21020;-73
2021/04/18 10:10:54;;;;;;;9.20;5.53;;;;;;;10.55;62.59;96788.81;4950608;28;20481;-73
2021/04/18 10:13:38;;;;;;;18.07;6.70;;;;;;;10.74;62.60;96785.03;4950564;28;20470;-73
2021/04/18 10:16:21;;;;;;;20.63;6.03;;;;;;;10.59;61.61;96779.88;4948615;28;20465;-72
2021/04/18 10:19:15;;;;;;;16.43;6.20;;;;;;;10.30;62.79;96786.78;4944676;28;20865;-74
2021/04/18 10:21:43;;;;;;;14.20;7.27;;;;;;;10.29;63.44;96787.72;4924883;28;20485;-73
2021/04/18 10:24:33;;;;;;;9.93;5.23;;;;;;;10.66;62.83;96776.84;4948983;28;21151;-72
2021/04/18 10:27:02;;;;;;;62.50;30.87;;;;;;;10.93;62.07;96769.97;4948568;28;20716;-74
2021/04/18 10:29:29;;;;;;;14.70;5.77;;;;;;;10.79;61.94;96771.72;4945232;28;20517;-75
2021/04/18 10:31:56;;;;;;;15.40;6.60;;;;;;;10.91;61.13;96771.81;4938931;28;21178;-74
2021/04/18 10:34:26;;;;;;;10.23;5.50;;;;;;;11.04;61.79;96767.53;4951867;28;20460;-75
2021/04/18 10:36:54;;;;;;;10.77;5.90;;;;;;;11.04;62.08;96764.94;4952327;28;20435;-74
2021/04/18 10:39:21;;;;;;;10.53;5.53;;;;;;;11.19;62.17;96771.81;4950276;28;20942;-74
2021/04/18 10:41:50;;;;;;;14.30;5.53;;;;;;;11.54;61.43;96770.47;4944636;28;20478;-74
2021/04/18 10:44:17;;;;;;;15.13;6.63;;;;;;;11.80;60.42;96769.69;4938225;28;20486;-75
2021/04/18 10:46:45;;;;;;;11.27;5.90;;;;;;;12.00;59.80;96768.41;4944468;28;20862;-75
2021/04/18 10:49:12;;;;;;;14.67;6.10;;;;;;;11.75;58.92;96769.16;4942499;28;20869;-73
2021/04/18 10:51:40;;;;;;;12.00;5.40;;;;;;;11.59;59.64;96771.06;4944781;28;20762;-72
2021/04/18 10:54:07;;;;;;;9.10;5.63;;;;;;;11.72;59.85;96764.09;4947152;28;20996;-74
2021/04/18 10:56:34;;;;;;;11.80;5.33;;;;;;;11.77;60.74;96754.22;4951295;28;20470;-73
2021/04/18 10:59:01;;;;;;;10.83;5.30;;;;;;;11.56;59.94;96752.13;4939410;28;20841;-73
2021/04/18 11:01:28;;;;;;;15.07;5.70;;;;;;;11.57;60.23;96769.44;4938014;28;20479;-73
2021/04/18 11:03:55;;;;;;;14.63;6.47;;;;;;;11.40;60.04;96764.44;4948399;28;20470;-74
2021/04/18 11:06:23;;;;;;;11.23;6.10;;;;;;;11.46;61.38;96762.28;4938344;28;21007;-72
2021/04/18 11:08:51;;;;;;;13.43;5.77;;;;;;;11.41;61.43;96764.34;4947346;28;21169;-73
2021/04/18 11:11:19;;;;;;;10.07;5.80;;;;;;;11.28;61.44;96765.22;4947188;28;20826;-75
2021/04/18 11:13:46;;;;;;;13.20;6.27;;;;;;;11.15;61.99;96770.34;4945539;28;21012;-73
2021/04/18 11:16:13;;;;;;;13.07;7.40;;;;;;;11.07;62.16;96759.56;4942112;28;20941;-73
2021/04/18 11:18:45;;;;;;;16.13;6.17;;;;;;;11.24;61.83;96764.56;4950023;28;20460;-75
2021/04/18 11:21:14;;;;;;;11.87;6.40;;;;;;;11.24;61.10;96763.72;4948062;28;21153;-75
2021/04/18 11:23:41;;;;;;;17.90;6.93;;;;;;;10.78;62.06;96763.09;4918741;28;20972;-73
2021/04/18 11:26:09;;;;;;;14.47;6.67;;;;;;;10.93;63.36;96764.78;4950538;28;20448;-75
2021/04/18 11:28:36;;;;;;;16.60;7.90;;;;;;;11.12;63.60;96765.31;4943631;28;20848;-75
2021/04/18 11:31:03;;;;;;;13.03;5.97;;;;;;;11.13;63.00;96766.16;4941224;28;20793;-75
2021/04/18 11:33:31;;;;;;;14.53;5.87;;;;;;;11.17;62.84;96760.66;4950185;28;20803;-75
2021/04/18 11:36:01;;;;;;;12.80;6.27;;;;;;;11.33;62.72;96763.97;4941539;28;20481;-74
2021/04/18 11:38:28;;;;;;;10.00;6.20;;;;;;;11.41;62.17;96760.91;4936584;28;20803;-73
2021/04/18 11:40:55;;;;;;;11.90;6.67;;;;;;;11.38;63.70;96761.94;4913188;28;20900;-74
2021/04/18 11:43:23;;;;;;;8.37;5.20;;;;;;;11.63;62.40;96762.09;4941138;28;20497;-74
2021/04/18 11:45:50;;;;;;;12.00;6.43;;;;;;;11.75;61.46;96755.25;4942294;28;20506;-75